Time;durP1;ratioP1;P1;durP2;ratioP2;P2;SDS_P1;SDS_P2;PMS_P1;PMS_P2;Temp;Humidity;BMP_temperature;BMP_pressure;BME280_temperature;BME280_humidity;BME280_pressure;Samples;Min_cycle;Max_cycle;Signal;HPM_P1;HPM_P2
2023/06/09 00:00:41;;;;;;;8.30;7.20;;;;;;;17.92;83.68;97677.33;107122;1277;22525;-84
2023/06/09 00:03:31;;;;;;;8.80;7.50;;;;;;;17.96;83.97;97676.02;107020;1277;24220;-84
2023/06/09 00:05:59;;;;;;;8.20;7.20;;;;;;;17.96;83.92;97672.67;106855;1277;22571;-84
2023/06/09 00:08:29;;;;;;;9.20;7.30;;;;;;;17.92;84.27;97670.94;106920;1277;22508;-82
2023/06/09 00:10:57;;;;;;;8.60;7.80;;;;;;;17.91;84.90;97671.62;106822;1277;22879;-82
2023/06/09 00:13:25;;;;;;;9.10;8.20;;;;;;;17.89;85.86;97671.73;106921;1277;24247;-82
2023/06/09 00:15:53;;;;;;;8.40;7.50;;;;;;;17.97;85.33;97668.41;107114;1277;23492;-82
2023/06/09 00:18:24;;;;;;;8.30;7.50;;;;;;;18.00;84.68;97668.95;107282;1277;22518;-83
2023/06/09 00:20:52;;;;;;;9.50;6.50;;;;;;;18.03;84.90;97663.80;106920;1277;22612;-82
2023/06/09 00:23:20;;;;;;;10.30;8.20;;;;;;;18.09;85.38;97661.15;106956;1277;25322;-82
2023/06/09 00:25:48;;;;;;;9.00;8.10;;;;;;;18.09;84.78;97661.08;106989;1277;25232;-83
2023/06/09 00:28:16;;;;;;;8.80;7.60;;;;;;;18.03;85.49;97656.57;107055;1273;24195;-82
2023/06/09 00:30:44;;;;;;;8.80;7.90;;;;;;;18.02;86.30;97657.48;107069;1277;22513;-83
2023/06/09 00:33:12;;;;;;;9.70;8.70;;;;;;;18.05;85.81;97654.67;107080;1277;24315;-83
2023/06/09 00:35:40;;;;;;;10.40;8.10;;;;;;;17.98;85.43;97651.15;106895;1277;23336;-83
2023/06/09 00:38:08;;;;;;;8.80;7.50;;;;;;;17.99;85.61;97653.58;107105;1277;22580;-83
2023/06/09 00:40:37;;;;;;;8.10;7.30;;;;;;;17.98;85.60;97652.56;107077;1277;22634;-83
2023/06/09 00:43:05;;;;;;;7.80;7.00;;;;;;;18.01;85.94;97649.52;106924;1277;25408;-82
2023/06/09 00:45:33;;;;;;;8.60;7.60;;;;;;;18.05;86.21;97649.13;106904;1277;22534;-82
2023/06/09 00:48:01;;;;;;;8.80;7.90;;;;;;;18.10;86.37;97649.24;106988;1277;23932;-84
2023/06/09 00:50:29;;;;;;;9.90;8.70;;;;;;;18.12;86.09;97648.52;107289;1277;22517;-81
2023/06/09 00:52:58;;;;;;;6.80;6.10;;;;;;;18.13;86.39;97643.64;107183;1277;25397;-81
2023/06/09 00:55:26;;;;;;;8.00;7.20;;;;;;;18.21;87.29;97646.00;106969;1256;22533;-80
2023/06/09 00:57:55;;;;;;;6.80;6.10;;;;;;;18.32;86.80;97641.59;107036;1277;22554;-81
2023/06/09 01:00:28;;;;;;;8.30;7.50;;;;;;;18.39;86.19;97641.09;107167;1277;25390;-81
2023/06/09 01:03:01;;;;;;;7.50;6.80;;;;;;;18.42;86.90;97642.72;107107;1277;24270;-81
2023/06/09 01:05:33;;;;;;;7.50;6.70;;;;;;;18.51;86.50;97637.38;107044;1277;22540;-81
2023/06/09 01:08:22;;;;;;;7.30;6.40;;;;;;;18.55;86.54;97638.78;106985;1277;22683;-82
2023/06/09 01:11:02;;;;;;;9.90;7.80;;;;;;;18.60;86.19;97639.37;107651;1277;22541;-81
2023/06/09 01:13:53;;;;;;;8.20;7.40;;;;;;;18.57;85.88;97638.38;107132;1277;24297;-82
2023/06/09 01:16:28;;;;;;;7.10;6.40;;;;;;;18.59;86.19;97636.30;107028;1277;22582;-81
2023/06/09 01:18:59;;;;;;;7.90;7.10;;;;;;;18.66;87.06;97632.30;107341;1277;22491;-83
2023/06/09 01:21:35;;;;;;;7.60;6.80;;;;;;;18.78;86.76;97631.20;107240;1277;22556;-82
2023/06/09 01:24:33;;;;;;;7.00;6.20;;;;;;;18.87;86.58;97628.02;107107;1277;22643;-83
2023/06/09 01:27:05;;;;;;;7.50;6.60;;;;;;;18.91;85.57;97629.49;107051;1277;22577;-83
2023/06/09 01:29:35;;;;;;;6.90;6.00;;;;;;;18.89;85.51;97627.96;107138;1277;24413;-83
2023/06/09 01:32:04;;;;;;;8.00;7.20;;;;;;;18.81;85.84;97625.71;106949;1277;26630;-83
2023/06/09 01:34:32;;;;;;;8.50;7.70;;;;;;;18.74;85.37;97624.23;107033;1277;24055;-83
2023/06/09 01:37:02;;;;;;;9.30;7.30;;;;;;;18.62;86.43;97626.23;107035;1277;24681;-83
2023/06/09 01:39:31;;;;;;;6.80;5.90;;;;;;;18.65;85.96;97625.42;107033;1277;22541;-83
2023/06/09 01:41:59;;;;;;;8.60;7.70;;;;;;;18.68;86.44;97624.93;106980;1278;22528;-83
2023/06/09 01:44:27;;;;;;;9.40;8.50;;;;;;;18.61;85.06;97623.71;106877;1277;25217;-84
2023/06/09 01:46:55;;;;;;;11.30;9.20;;;;;;;18.43;85.08;97623.81;106945;1277;24225;-83
2023/06/09 01:49:42;;;;;;;9.50;8.60;;;;;;;18.26;86.44;97622.88;106941;1278;22527;-84
2023/06/09 01:52:21;;;;;;;8.00;6.70;;;;;;;18.30;86.88;97621.41;107004;1278;22524;-84
2023/06/09 01:54:54;;;;;;;5.90;5.30;;;;;;;18.41;88.37;97621.17;106855;1254;22591;-83
2023/06/09 01:57:53;;;;;;;7.50;6.80;;;;;;;18.54;87.55;97619.44;107056;1277;22663;-84
2023/06/09 02:00:25;;;;;;;8.80;7.80;;;;;;;18.58;87.61;97621.70;107086;1277;22630;-83
2023/06/09 02:02:56;;;;;;;6.40;5.80;;;;;;;18.65;87.67;97618.48;107158;1277;25279;-84
2023/06/09 02:05:25;;;;;;;8.00;7.20;;;;;;;18.78;87.96;97615.27;106901;1277;25218;-82
2023/06/09 02:07:55;;;;;;;9.50;8.30;;;;;;;18.85;86.99;97614.64;107194;1277;22869;-84
2023/06/09 02:10:25;;;;;;;9.00;8.10;;;;;;;18.73;86.05;97605.58;106929;1276;22568;-84
2023/06/09 02:12:53;;;;;;;9.60;8.60;;;;;;;18.49;85.82;97600.77;106901;1277;25312;-83
2023/06/09 02:15:22;;;;;;;8.60;7.80;;;;;;;18.31;86.57;97602.50;106961;1277;22919;-82
2023/06/09 02:17:50;;;;;;;8.30;7.50;;;;;;;18.17;86.53;97601.43;106981;1277;22570;-83
2023/06/09 02:20:19;;;;;;;8.40;7.50;;;;;;;18.09;86.90;97602.04;106948;1277;24219;-84
2023/06/09 02:22:47;;;;;;;7.60;6.90;;;;;;;18.02;87.24;97596.71;107447;1277;22644;-82
2023/06/09 02:25:15;;;;;;;7.30;6.50;;;;;;;17.99;87.44;97596.65;106951;1277;25350;-83
2023/06/09 02:27:45;;;;;;;9.20;7.40;;;;;;;18.02;87.55;97590.80;107071;1255;22640;-83
2023/06/09 02:30:13;;;;;;;7.90;7.20;;;;;;;17.99;87.65;97595.08;107083;1277;23236;-82
2023/06/09 02:32:42;;;;;;;9.00;8.10;;;;;;;17.91;87.63;97596.46;106980;1277;22541;-82
2023/06/09 02:35:10;;;;;;;10.30;6.60;;;;;;;17.83;87.88;97601.72;107049;1277;24445;-82
2023/06/09 02:37:41;;;;;;;8.70;7.80;;;;;;;17.83;88.32;97599.33;106905;1278;22647;-82
2023/06/09 02:40:10;;;;;;;7.20;6.50;;;;;;;17.83;87.98;97601.25;106934;1278;23277;-83
2023/06/09 02:42:38;;;;;;;9.00;7.40;;;;;;;17.75;88.11;97597.39;106904;1278;25613;-83
2023/06/09 02:45:08;;;;;;;7.70;6.90;;;;;;;17.71;88.39;97595.19;106967;1277;22525;-83
2023/06/09 02:47:36;;;;;;;7.60;6.70;;;;;;;17.63;88.54;97598.73;106955;1277;23352;-82
2023/06/09 02:50:05;;;;;;;7.50;6.80;;;;;;;17.65;89.65;97595.67;106857;1277;22632;-82
2023/06/09 02:52:34;;;;;;;7.80;6.90;;;;;;;17.76;89.16;97594.52;106865;1267;24190;-82
2023/06/09 02:55:03;;;;;;;9.00;8.00;;;;;;;17.82;90.49;97596.40;107057;1277;22537;-82
2023/06/09 02:57:33;;;;;;;7.90;7.10;;;;;;;18.00;90.88;97596.98;107090;1277;22520;-82
2023/06/09 03:00:04;;;;;;;9.00;8.20;;;;;;;18.13;90.65;97597.98;106809;1255;22570;-82
2023/06/09 03:02:32;;;;;;;10.40;9.40;;;;;;;18.24;89.94;97600.48;106994;1277;24303;-81
2023/06/09 03:05:01;;;;;;;10.30;9.20;;;;;;;18.16;88.97;97602.88;106944;1277;23924;-82
2023/06/09 03:07:31;;;;;;;7.00;6.30;;;;;;;18.15;89.76;97606.05;106949;1277;25284;-83
2023/06/09 03:10:02;;;;;;;7.90;6.80;;;;;;;18.29;90.80;97610.32;106998;1277;22532;-82
2023/06/09 03:12:31;;;;;;;7.70;6.90;;;;;;;18.45;90.72;97615.66;107055;1277;22526;-83
2023/06/09 03:14:59;;;;;;;9.80;8.80;;;;;;;18.58;89.86;97615.70;107160;1277;22554;-83
2023/06/09 03:17:28;;;;;;;9.70;8.80;;;;;;;18.56;88.44;97611.53;107166;1277;23938;-83
2023/06/09 03:19:57;;;;;;;10.50;9.20;;;;;;;18.51;88.93;97616.96;107198;1278;22525;-82
2023/06/09 03:22:27;;;;;;;9.40;8.50;;;;;;;18.50;89.16;97618.10;107434;1277;24205;-81
2023/06/09 03:24:56;;;;;;;8.40;7.30;;;;;;;18.53;89.18;97618.34;106921;1277;22527;-82
2023/06/09 03:27:24;;;;;;;10.30;9.30;;;;;;;18.55;88.92;97615.56;107075;1277;24599;-82
2023/06/09 03:29:52;;;;;;;10.30;9.30;;;;;;;18.53;88.58;97619.80;106970;1277;22514;-83
2023/06/09 03:32:20;;;;;;;7.90;7.20;;;;;;;18.50;88.23;97623.65;107063;1276;22521;-84
2023/06/09 03:34:49;;;;;;;9.10;8.20;;;;;;;18.44;88.12;97624.61;107195;1277;22693;-84
2023/06/09 03:37:17;;;;;;;9.80;8.90;;;;;;;18.41;88.24;97627.34;106968;1277;22689;-80
2023/06/09 03:39:45;;;;;;;9.80;8.90;;;;;;;18.34;88.30;97629.30;106862;1277;22652;-81
2023/06/09 03:42:15;;;;;;;7.50;6.60;;;;;;;18.34;89.22;97629.61;106707;1277;22941;-81
2023/06/09 03:44:43;;;;;;;9.60;8.60;;;;;;;18.42;89.49;97633.68;107046;1277;22526;-81
2023/06/09 03:47:11;;;;;;;11.20;10.10;;;;;;;18.53;89.62;97632.98;107053;1278;22914;-82
2023/06/09 03:49:40;;;;;;;9.90;9.00;;;;;;;18.50;88.85;97631.98;107107;1277;25274;-81
2023/06/09 03:52:08;;;;;;;8.90;8.10;;;;;;;18.47;88.53;97634.73;106845;1277;22529;-81
2023/06/09 03:54:36;;;;;;;10.00;9.10;;;;;;;18.50;89.82;97633.92;106911;1277;23238;-82
2023/06/09 03:57:05;;;;;;;9.30;8.30;;;;;;;18.62;89.62;97631.15;107040;1277;22554;-80
2023/06/09 03:59:34;;;;;;;9.70;8.70;;;;;;;18.66;88.87;97632.54;107061;1277;25469;-82
2023/06/09 04:02:02;;;;;;;11.50;10.40;;;;;;;18.69;89.63;97635.10;106929;1277;25405;-82
2023/06/09 04:04:30;;;;;;;11.10;10.00;;;;;;;18.76;89.04;97636.14;106938;1277;22570;-81
2023/06/09 04:06:59;;;;;;;11.80;10.60;;;;;;;18.74;88.61;97642.24;106898;1277;25483;-82
2023/06/09 04:09:27;;;;;;;9.20;8.20;;;;;;;18.79;88.73;97644.64;107050;1277;22517;-82
2023/06/09 04:11:55;;;;;;;8.40;7.60;;;;;;;18.86;89.16;97649.30;106811;1277;24250;-82
2023/06/09 04:14:24;;;;;;;12.20;11.20;;;;;;;19.01;89.01;97648.09;106958;1278;22782;-82
2023/06/09 04:16:53;;;;;;;11.10;10.10;;;;;;;18.95;87.64;97648.38;107005;1277;22539;-83
2023/06/09 04:19:23;;;;;;;11.10;10.10;;;;;;;18.78;87.67;97644.61;106887;1277;22565;-83
2023/06/09 04:21:51;;;;;;;12.70;11.50;;;;;;;18.80;88.69;97644.17;106872;1277;22541;-81
2023/06/09 04:24:19;;;;;;;13.90;11.90;;;;;;;18.74;88.01;97639.38;107002;1273;25360;-82
2023/06/09 04:26:49;;;;;;;11.90;10.80;;;;;;;18.79;88.56;97639.80;107039;1277;25437;-82
2023/06/09 04:29:17;;;;;;;14.50;13.20;;;;;;;18.78;87.61;97640.55;107045;1277;22524;-83
2023/06/09 04:31:46;;;;;;;15.10;13.80;;;;;;;18.66;87.30;97640.10;107289;1277;25230;-82
2023/06/09 04:34:16;;;;;;;12.40;11.30;;;;;;;18.51;87.59;97640.66;107046;1277;24201;-85
2023/06/09 04:36:47;;;;;;;15.00;13.60;;;;;;;18.46;87.84;97641.18;106771;1277;24206;-81
2023/06/09 04:39:16;;;;;;;14.40;12.80;;;;;;;18.34;87.83;97641.52;106926;1277;22537;-82
2023/06/09 04:41:47;;;;;;;13.70;12.30;;;;;;;18.21;87.90;97642.65;106588;1277;25265;-81
2023/06/09 04:44:16;;;;;;;15.40;14.00;;;;;;;18.10;88.11;97643.88;106671;1277;22590;-81
2023/06/09 04:46:46;;;;;;;14.40;13.10;;;;;;;18.04;88.25;97646.46;106739;1277;22620;-81
2023/06/09 04:49:16;;;;;;;15.50;14.10;;;;;;;17.99;88.46;97644.40;106862;1277;22644;-81
2023/06/09 04:51:47;;;;;;;15.40;14.00;;;;;;;18.00;88.69;97643.40;106890;1277;22555;-80
2023/06/09 04:54:28;;;;;;;12.40;11.40;;;;;;;18.01;88.74;97640.16;106922;1277;22597;-81
2023/06/09 04:56:59;;;;;;;14.50;13.10;;;;;;;18.10;90.20;97638.96;106900;1277;22534;-82
2023/06/09 04:59:28;;;;;;;15.40;13.80;;;;;;;18.27;89.85;97635.77;106962;1277;22597;-81
2023/06/09 05:01:57;;;;;;;13.00;11.80;;;;;;;18.38;90.27;97633.73;106877;1277;24200;-80
2023/06/09 05:04:26;;;;;;;12.50;11.40;;;;;;;18.54;90.09;97633.16;106619;1277;22634;-80
2023/06/09 05:06:55;;;;;;;13.40;12.20;;;;;;;18.56;89.74;97637.65;106622;1277;25347;-80
2023/06/09 05:09:23;;;;;;;12.50;11.20;;;;;;;18.59;89.79;97633.36;106656;1277;23931;-80
2023/06/09 05:11:52;;;;;;;10.90;9.90;;;;;;;18.70;89.98;97638.72;106545;1277;23889;-81
2023/06/09 05:14:21;;;;;;;10.90;9.80;;;;;;;18.82;89.85;97638.45;106534;1277;22528;-81
2023/06/09 05:16:49;;;;;;;12.60;11.40;;;;;;;18.94;89.76;97638.38;106525;1277;24255;-81
2023/06/09 05:19:17;;;;;;;10.80;9.40;;;;;;;18.96;89.82;97638.11;106539;1254;22570;-81
2023/06/09 05:21:46;;;;;;;11.70;9.50;;;;;;;18.97;89.88;97640.46;106889;1277;22899;-80
2023/06/09 05:24:14;;;;;;;13.00;11.70;;;;;;;19.01;90.05;97639.60;106830;1277;22695;-81
2023/06/09 05:26:43;;;;;;;14.80;12.50;;;;;;;19.05;90.29;97641.16;106934;1277;24368;-82
2023/06/09 05:29:11;;;;;;;11.20;10.10;;;;;;;19.12;89.83;97640.05;106934;1277;22630;-81
2023/06/09 05:33:57;;;;;;;10.40;9.50;;;;;;;19.18;90.09;97637.34;104337;1301;544956;-81
2023/06/09 05:36:27;;;;;;;13.20;11.90;;;;;;;19.26;90.37;97638.06;106318;1287;22529;-79
2023/06/09 05:38:56;;;;;;;12.00;10.90;;;;;;;19.40;90.41;97639.86;106208;1287;22777;-80
2023/06/09 05:41:25;;;;;;;13.80;12.40;;;;;;;19.51;90.40;97638.27;106224;1288;22570;-80
2023/06/09 05:43:57;;;;;;;13.50;12.40;;;;;;;19.66;90.18;97633.86;106208;1288;23280;-79
2023/06/09 05:46:25;;;;;;;14.00;12.50;;;;;;;19.73;89.71;97638.05;105995;1266;220171;-80
2023/06/09 05:48:54;;;;;;;11.60;9.60;;;;;;;19.81;89.73;97629.73;106375;1286;22767;-81
2023/06/09 05:51:22;;;;;;;13.40;12.00;;;;;;;19.94;89.71;97623.93;106491;1284;24351;-81
2023/06/09 05:53:50;;;;;;;11.50;10.40;;;;;;;20.04;89.57;97623.61;106452;1280;22645;-80
2023/06/09 05:56:19;;;;;;;12.20;11.10;;;;;;;20.18;89.49;97625.54;106397;1286;25274;-81
2023/06/09 05:58:47;;;;;;;12.90;11.30;;;;;;;20.35;89.34;97630.16;106414;1286;25220;-82
2023/06/09 06:01:16;;;;;;;12.10;11.10;;;;;;;20.43;88.96;97630.20;106391;1286;24235;-83
2023/06/09 06:03:44;;;;;;;12.40;11.20;;;;;;;20.49;88.75;97628.63;106368;1286;23209;-82
2023/06/09 06:06:12;;;;;;;11.90;9.70;;;;;;;20.54;88.11;97627.71;106474;1286;22531;-83
2023/06/09 06:08:40;;;;;;;12.30;11.10;;;;;;;20.59;87.54;97626.60;106404;1286;24169;-83
2023/06/09 06:11:08;;;;;;;12.30;10.70;;;;;;;20.53;87.04;97623.77;106393;1286;22543;-82
2023/06/09 06:13:36;;;;;;;10.00;9.10;;;;;;;20.57;87.57;97626.02;106437;1286;22668;-82
2023/06/09 06:16:04;;;;;;;8.40;7.50;;;;;;;20.73;88.01;97631.86;106355;1274;23046;-81
2023/06/09 06:18:32;;;;;;;9.90;8.90;;;;;;;20.92;87.85;97639.06;106446;1286;24237;-82
2023/06/09 06:21:00;;;;;;;10.40;9.40;;;;;;;21.06;87.36;97644.23;106424;1286;22545;-82
2023/06/09 06:23:28;;;;;;;13.60;11.90;;;;;;;21.15;87.11;97647.46;106348;1286;22536;-82
2023/06/09 06:25:56;;;;;;;12.00;10.70;;;;;;;21.20;86.35;97647.59;106289;1286;23532;-82
2023/06/09 06:28:24;;;;;;;12.60;11.40;;;;;;;21.17;85.78;97655.17;106324;1286;22587;-82
2023/06/09 06:30:52;;;;;;;11.90;10.70;;;;;;;21.15;85.83;97659.21;106374;1286;22537;-82
2023/06/09 06:33:21;;;;;;;12.60;11.00;;;;;;;21.22;85.97;97660.85;106405;1286;22530;-82
2023/06/09 06:35:49;;;;;;;11.70;10.00;;;;;;;21.26;85.49;97659.88;106434;1286;22706;-82
2023/06/09 06:38:17;;;;;;;15.00;10.70;;;;;;;21.28;85.58;97661.46;106389;1286;22532;-82
2023/06/09 06:40:47;;;;;;;14.90;10.10;;;;;;;21.30;85.48;97663.75;106381;1286;22561;-82
2023/06/09 06:43:15;;;;;;;12.20;11.00;;;;;;;21.34;85.03;97662.46;106768;1280;22636;-83
2023/06/09 06:45:56;;;;;;;13.10;11.80;;;;;;;21.31;84.56;97670.42;106891;1280;24359;-83
2023/06/09 06:48:26;;;;;;;11.70;10.50;;;;;;;21.33;84.49;97669.66;107067;1280;24216;-83
2023/06/09 06:50:55;;;;;;;14.50;11.30;;;;;;;21.42;84.62;97669.77;107143;1280;24055;-83
2023/06/09 06:53:24;;;;;;;16.00;11.30;;;;;;;21.55;84.65;97671.09;106864;1280;25278;-80
2023/06/09 06:55:52;;;;;;;11.90;10.70;;;;;;;21.75;84.48;97669.70;106735;1280;25291;-81
2023/06/09 06:58:20;;;;;;;12.20;11.00;;;;;;;21.85;83.68;97673.41;106789;1280;25279;-82
2023/06/09 07:00:48;;;;;;;12.50;10.30;;;;;;;21.94;83.71;97672.46;106795;1279;22536;-83
2023/06/09 07:03:16;;;;;;;12.20;11.00;;;;;;;22.07;83.70;97672.17;106865;1280;22680;-82
2023/06/09 07:05:44;;;;;;;12.10;10.00;;;;;;;22.13;82.88;97665.63;106820;1280;24212;-83
2023/06/09 07:08:13;;;;;;;12.60;11.40;;;;;;;22.10;82.39;97670.79;106998;1279;22517;-81
2023/06/09 07:10:41;;;;;;;11.80;10.70;;;;;;;21.99;82.14;97670.23;106859;1280;22665;-82
2023/06/09 07:13:09;;;;;;;12.90;11.60;;;;;;;21.92;81.70;97667.59;106760;1279;25591;-81
2023/06/09 07:15:38;;;;;;;14.20;11.00;;;;;;;21.91;82.04;97669.84;106793;1279;24226;-83
2023/06/09 07:18:07;;;;;;;13.50;11.70;;;;;;;22.11;82.13;97671.50;106759;1279;22560;-85
2023/06/09 07:20:35;;;;;;;13.50;11.90;;;;;;;22.31;81.57;97667.76;106850;1279;22535;-82
2023/06/09 07:23:03;;;;;;;12.80;11.50;;;;;;;22.38;81.64;97668.42;106785;1279;25435;-82
2023/06/09 07:25:33;;;;;;;13.50;12.00;;;;;;;22.50;81.00;97669.91;106873;1279;22529;-81
2023/06/09 07:28:02;;;;;;;13.60;12.20;;;;;;;22.50;80.62;97668.89;106848;1279;22613;-82
2023/06/09 07:30:30;;;;;;;15.90;13.10;;;;;;;22.52;79.71;97662.55;106815;1279;22525;-81
2023/06/09 07:32:58;;;;;;;13.10;11.50;;;;;;;22.45;79.39;97662.83;106782;1279;25281;-81
2023/06/09 07:35:28;;;;;;;12.60;11.20;;;;;;;22.50;80.12;97665.20;106770;1279;23344;-83
2023/06/09 07:37:56;;;;;;;12.30;10.10;;;;;;;22.61;79.87;97665.58;107187;1279;25618;-84
2023/06/09 07:40:24;;;;;;;16.80;13.40;;;;;;;22.65;79.25;97664.05;107161;1279;23285;-81
2023/06/09 07:42:53;;;;;;;15.30;11.40;;;;;;;22.62;78.46;97659.39;106833;1279;24246;-86
2023/06/09 07:45:21;;;;;;;15.10;12.40;;;;;;;22.55;78.39;97660.14;106692;1279;25406;-82
2023/06/09 07:47:50;;;;;;;12.80;11.50;;;;;;;22.58;78.51;97656.62;106712;1279;22578;-82
2023/06/09 07:50:18;;;;;;;16.30;12.50;;;;;;;22.64;78.61;97660.73;106818;1279;24249;-82
2023/06/09 07:52:46;;;;;;;13.50;11.50;;;;;;;22.58;77.59;97660.06;106791;1279;22542;-81
2023/06/09 07:55:15;;;;;;;12.90;11.60;;;;;;;22.49;77.68;97655.94;106790;1279;22652;-83
2023/06/09 07:57:43;;;;;;;15.70;13.10;;;;;;;22.45;77.40;97654.20;106760;1279;22531;-80
2023/06/09 08:00:13;;;;;;;17.30;12.80;;;;;;;22.50;77.01;97659.56;106798;1279;22537;-79
2023/06/09 08:02:43;;;;;;;14.30;12.80;;;;;;;22.55;76.65;97660.84;106766;1279;24238;-82
2023/06/09 08:05:16;;;;;;;14.40;13.00;;;;;;;22.50;75.61;97658.45;106738;1280;22538;-82
2023/06/09 08:07:45;;;;;;;13.00;11.70;;;;;;;22.47;76.21;97662.20;106697;1278;22526;-83
2023/06/09 08:10:13;;;;;;;15.20;13.70;;;;;;;22.52;75.91;97664.20;107039;1277;25354;-84
2023/06/09 08:12:41;;;;;;;14.80;13.30;;;;;;;22.56;75.53;97665.25;107016;1278;22640;-81
2023/06/09 08:15:10;;;;;;;15.20;13.80;;;;;;;22.60;74.94;97659.08;106846;1278;23886;-83
2023/06/09 08:17:38;;;;;;;15.20;13.70;;;;;;;22.65;75.05;97658.23;106861;1278;22736;-86
2023/06/09 08:20:07;;;;;;;15.70;13.90;;;;;;;22.75;74.87;97662.68;106853;1278;22525;-82
2023/06/09 08:22:36;;;;;;;14.70;13.20;;;;;;;22.93;74.91;97661.04;107193;1278;22551;-80
2023/06/09 08:25:05;;;;;;;15.70;14.10;;;;;;;23.13;74.08;97654.63;107538;1278;22568;-80
2023/06/09 08:27:34;;;;;;;16.50;15.00;;;;;;;23.25;73.92;97653.41;107597;1278;23890;-78
2023/06/09 08:30:03;;;;;;;15.10;13.10;;;;;;;23.32;73.25;97651.13;107191;1278;22540;-81
2023/06/09 08:32:33;;;;;;;15.00;13.50;;;;;;;23.31;73.53;97651.92;107503;1278;22526;-79
2023/06/09 08:35:09;;;;;;;15.00;13.40;;;;;;;23.34;73.34;97650.12;107462;1278;22595;-78
2023/06/09 08:37:39;;;;;;;15.50;14.00;;;;;;;23.46;73.25;97648.27;106843;1278;22634;-79
2023/06/09 08:40:08;;;;;;;16.30;13.60;;;;;;;23.71;73.03;97644.05;106615;1278;22654;-79
2023/06/09 08:42:39;;;;;;;13.90;12.50;;;;;;;24.03;72.45;97636.85;107029;1278;24246;-81
2023/06/09 08:45:10;;;;;;;12.40;11.30;;;;;;;24.22;71.37;97644.70;107076;1278;26483;-82
2023/06/09 08:47:44;;;;;;;13.40;12.10;;;;;;;24.31;71.15;97639.41;106990;1278;24199;-80
2023/06/09 08:50:13;;;;;;;13.00;11.10;;;;;;;24.38;70.53;97634.52;106926;1278;22781;-80
2023/06/09 08:52:43;;;;;;;13.90;11.50;;;;;;;24.27;69.89;97636.27;106883;1278;25392;-81
2023/06/09 08:55:13;;;;;;;12.80;11.50;;;;;;;24.25;70.16;97636.27;106856;1278;22577;-78
2023/06/09 08:57:42;;;;;;;13.00;11.70;;;;;;;24.15;69.68;97632.59;106877;1278;25266;-80
2023/06/09 09:00:11;;;;;;;12.80;11.50;;;;;;;24.13;69.64;97629.76;106890;1278;22530;-81
2023/06/09 09:02:41;;;;;;;12.40;11.10;;;;;;;24.29;68.84;97624.07;106867;1278;24262;-76
2023/06/09 09:05:10;;;;;;;12.40;11.10;;;;;;;24.26;67.39;97615.35;106584;1278;22561;-75
2023/06/09 09:07:40;;;;;;;12.30;10.80;;;;;;;24.24;67.63;97616.23;106535;1277;22596;-78
2023/06/09 09:10:10;;;;;;;13.90;10.50;;;;;;;24.43;68.28;97613.20;106697;1266;22525;-81
2023/06/09 09:12:51;;;;;;;10.90;9.80;;;;;;;24.71;68.02;97607.15;106820;1278;25364;-76
2023/06/09 09:15:20;;;;;;;10.50;9.50;;;;;;;24.90;67.03;97604.15;106737;1277;22536;-76
2023/06/09 09:17:51;;;;;;;10.70;9.70;;;;;;;24.96;66.10;97603.58;106669;1278;25336;-77
2023/06/09 09:20:31;;;;;;;11.00;9.80;;;;;;;24.98;65.42;97598.06;106681;1278;25413;-76
2023/06/09 09:23:02;;;;;;;13.00;10.00;;;;;;;24.84;64.88;97610.00;106785;1278;26595;-76
2023/06/09 09:25:31;;;;;;;9.80;8.80;;;;;;;24.83;66.09;97607.96;106809;1278;22521;-76
2023/06/09 09:28:10;;;;;;;12.20;9.90;;;;;;;24.95;65.62;97607.05;106615;1278;22541;-79
2023/06/09 09:30:44;;;;;;;10.10;8.20;;;;;;;25.03;65.16;97607.78;107260;1278;22653;-78
2023/06/09 09:33:24;;;;;;;11.20;8.30;;;;;;;25.13;64.65;97605.30;107232;1278;22525;-77
2023/06/09 09:35:58;;;;;;;8.90;8.10;;;;;;;25.30;64.54;97604.75;107678;1278;22746;-76
2023/06/09 09:38:28;;;;;;;9.30;8.00;;;;;;;25.45;63.88;97601.98;106785;1278;22647;-79
2023/06/09 09:40:59;;;;;;;8.90;7.20;;;;;;;25.62;63.40;97601.68;106961;1278;23265;-80
2023/06/09 09:43:56;;;;;;;10.80;7.10;;;;;;;25.73;61.22;97597.04;106765;1278;24391;-75
2023/06/09 09:46:25;;;;;;;8.00;6.90;;;;;;;25.75;60.15;97596.15;106739;1278;22559;-77
2023/06/09 09:48:54;;;;;;;8.30;7.50;;;;;;;25.62;60.61;97597.35;106684;1278;24249;-78
2023/06/09 09:51:23;;;;;;;7.50;6.40;;;;;;;25.76;61.20;97587.70;106820;1270;22528;-75
2023/06/09 09:53:51;;;;;;;9.10;6.70;;;;;;;25.90;60.38;97581.77;106607;1278;25363;-78
2023/06/09 09:56:23;;;;;;;8.40;7.00;;;;;;;26.06;60.41;97579.97;106626;1278;22585;-78
2023/06/09 09:58:53;;;;;;;8.60;6.40;;;;;;;26.22;60.48;97583.05;106621;1278;22511;-76
2023/06/09 10:01:24;;;;;;;9.80;6.50;;;;;;;26.22;59.35;97578.08;106530;1278;24254;-78
2023/06/09 10:03:54;;;;;;;10.10;7.10;;;;;;;25.93;60.04;97583.95;106627;1279;24270;-77
2023/06/09 10:06:32;;;;;;;9.90;6.70;;;;;;;25.69;59.60;97581.52;106574;1279;25277;-76
2023/06/09 10:09:02;;;;;;;10.00;6.90;;;;;;;25.51;59.60;97574.20;106598;1279;22593;-76
2023/06/09 10:11:34;;;;;;;7.10;6.20;;;;;;;25.41;58.87;97565.59;106623;1278;22690;-78
2023/06/09 10:14:03;;;;;;;8.30;6.30;;;;;;;25.32;57.77;97558.80;106577;1278;22530;-77
2023/06/09 10:16:32;;;;;;;7.70;6.10;;;;;;;25.28;59.46;97555.91;106578;1278;25376;-76
2023/06/09 10:19:01;;;;;;;8.20;6.20;;;;;;;25.62;59.55;97556.05;106614;1278;22531;-77
2023/06/09 10:21:29;;;;;;;7.70;5.50;;;;;;;25.84;58.74;97556.44;107113;1278;24213;-77
2023/06/09 10:23:58;;;;;;;7.50;5.70;;;;;;;25.93;58.99;97557.70;106907;1278;22583;-77
2023/06/09 10:26:27;;;;;;;5.90;5.30;;;;;;;26.20;59.40;97552.92;108032;1278;22526;-79
2023/06/09 10:28:55;;;;;;;7.50;5.10;;;;;;;26.42;59.20;97556.55;107127;1278;24239;-79
2023/06/09 10:31:24;;;;;;;6.70;5.00;;;;;;;26.40;58.56;97560.29;107436;1278;22588;-79
2023/06/09 10:33:53;;;;;;;6.50;4.80;;;;;;;26.20;56.56;97560.58;106837;1278;22543;-79
2023/06/09 10:36:21;;;;;;;6.00;4.80;;;;;;;25.92;57.17;97560.86;106937;1278;22747;-78
2023/06/09 10:38:53;;;;;;;7.20;4.80;;;;;;;25.71;57.39;97560.78;106911;1278;22532;-78
2023/06/09 10:41:30;;;;;;;8.90;5.00;;;;;;;25.55;57.89;97557.84;107196;1278;22567;-78
2023/06/09 10:44:04;;;;;;;9.20;5.20;;;;;;;25.44;57.62;97555.09;106844;1276;22738;-81
2023/06/09 10:46:46;;;;;;;7.90;5.10;;;;;;;25.39;57.73;97548.67;107599;1270;22553;-81
2023/06/09 10:49:24;;;;;;;8.30;5.40;;;;;;;25.64;57.58;97551.07;107252;1278;24202;-81
2023/06/09 10:51:53;;;;;;;7.20;5.00;;;;;;;25.60;56.77;97548.42;107461;1278;22554;-82
2023/06/09 10:54:23;;;;;;;8.80;5.30;;;;;;;25.48;57.18;97544.42;109075;1275;22564;-82
2023/06/09 10:57:00;;;;;;;8.00;5.20;;;;;;;25.37;56.79;97543.00;110138;1275;22587;-80
2023/06/09 10:59:31;;;;;;;7.70;5.10;;;;;;;25.30;57.95;97541.80;107664;1275;23028;-80
2023/06/09 11:01:59;;;;;;;6.20;5.30;;;;;;;25.57;58.01;97540.73;107837;1275;22526;-80
2023/06/09 11:04:44;;;;;;;6.10;4.80;;;;;;;25.71;57.14;97540.29;107840;1275;22609;-80
2023/06/09 11:07:17;;;;;;;8.20;5.00;;;;;;;25.62;57.70;97541.00;107844;1275;22728;-81
2023/06/09 11:09:51;;;;;;;7.10;4.60;;;;;;;25.57;57.78;97541.74;107768;1275;22573;-79
2023/06/09 11:12:38;;;;;;;7.60;5.20;;;;;;;25.46;57.58;97544.29;107773;1270;22591;-78
2023/06/09 11:15:07;;;;;;;6.80;4.90;;;;;;;25.37;57.64;97546.02;107103;1275;25279;-79
2023/06/09 11:17:39;;;;;;;8.50;5.40;;;;;;;25.32;57.92;97543.92;107347;1276;22528;-79
2023/06/09 11:20:14;;;;;;;5.90;5.30;;;;;;;25.31;58.32;97542.27;107043;1276;22652;-79
2023/06/09 11:22:48;;;;;;;7.10;5.50;;;;;;;25.26;58.22;97540.02;109195;1270;24206;-78
2023/06/09 11:25:16;;;;;;;9.40;5.40;;;;;;;25.20;58.35;97541.56;107132;1275;23349;-79
2023/06/09 11:27:47;;;;;;;7.40;5.30;;;;;;;25.20;58.50;97542.81;107797;1275;22552;-78
2023/06/09 11:30:18;;;;;;;6.50;4.90;;;;;;;25.19;58.35;97543.77;107188;1254;26532;-81
2023/06/09 11:33:08;;;;;;;10.10;5.80;;;;;;;25.18;58.79;97541.33;108240;1276;22560;-77